Time;durP1;ratioP1;P1;durP2;ratioP2;P2;SDS_P1;SDS_P2;PMS_P1;PMS_P2;Temp;Humidity;BMP_temperature;BMP_pressure;BME280_temperature;BME280_humidity;BME280_pressure;Samples;Min_cycle;Max_cycle;Signal;HPM_P1;HPM_P2
2021/12/05 00:22:37;;;;;;;;;;;;;;;8.22;58.59;98882.41;4977557;28;7137;-75
2021/12/05 00:25:09;;;;;;;;;;;;;;;8.23;57.92;98873.09;4974646;28;6835;-75
2021/12/05 00:27:47;;;;;;;;;;;;;;;8.24;57.95;98875.66;4973457;28;7218;-75
2021/12/05 00:54:15;;;;;;;;;;;;;;;8.09;58.96;98873.47;4972781;28;7234;-75
2021/12/05 00:56:30;;;;;;;;;;;;;;;8.08;58.89;98871.75;4971380;28;7141;-75
2021/12/05 01:09:35;;;;;;;;;;;;;;;8.02;57.81;98877.50;4972567;28;7108;-75
2021/12/05 01:17:01;;;;;;;;;;;;;;;7.97;58.48;98880.72;4958689;28;6980;-75
2021/12/05 01:19:30;;;;;;;;;;;;;;;7.98;58.54;98879.91;4974019;28;6804;-75
2021/12/05 01:22:04;;;;;;;;;;;;;;;7.97;58.14;98881.59;4973435;28;6891;-75
2021/12/05 01:24:45;;;;;;;;;;;;;;;7.97;58.46;98884.16;4975476;28;6820;-75
2021/12/05 01:27:24;;;;;;;;;;;;;;;7.95;58.72;98883.22;4976603;28;6824;-75
2021/12/05 01:30:00;;;;;;;;;;;;;;;7.92;58.95;98889.09;4973959;28;6811;-75
2021/12/05 01:32:58;;;;;;;;;;;;;;;7.91;58.69;98883.94;4976478;28;6896;-75
2021/12/05 01:35:48;;;;;;;;;;;;;;;7.86;58.85;98876.13;4976469;28;6983;-75
2021/12/05 01:55:15;;;;;;;;;;;;;;;7.74;59.02;98898.66;4975165;28;7153;-75
2021/12/05 01:58:07;;;;;;;;;;;;;;;7.74;58.35;98899.50;4978710;28;6977;-76
2021/12/05 02:41:07;;;;;;;;;;;;;;;7.69;58.49;98885.75;4977700;28;6812;-75
2021/12/05 02:43:38;;;;;;;;;;;;;;;7.69;59.27;98875.56;4962372;28;6816;-75
2021/12/05 02:46:05;;;;;;;;;;;;;;;7.70;58.25;98864.53;4976641;28;6933;-75
2021/12/05 02:48:35;;;;;;;;;;;;;;;7.71;59.18;98868.81;4976310;28;7080;-75
2021/12/05 02:51:09;;;;;;;;;;;;;;;7.71;58.88;98866.25;4973921;28;7039;-75
2021/12/05 02:53:47;;;;;;;;;;;;;;;7.71;57.95;98863.72;4973527;28;7277;-75
2021/12/05 02:56:14;;;;;;;;;;;;;;;7.69;58.12;98869.56;4975161;28;6823;-75
2021/12/05 02:58:48;;;;;;;;;;;;;;;7.69;58.54;98861.91;4975177;28;6894;-75
2021/12/05 03:01:37;;;;;;;;;;;;;;;7.68;58.62;98868.72;4958610;28;6997;-75
2021/12/05 03:04:04;;;;;;;;;;;;;;;7.67;58.50;98859.31;4975070;28;6820;-75
2021/12/05 03:06:33;;;;;;;;;;;;;;;7.67;58.33;98863.56;4974304;28;7007;-75
2021/12/05 03:09:09;;;;;;;;;;;;;;;7.66;58.64;98865.22;4955815;28;7016;-75
2021/12/05 03:11:36;;;;;;;;;;;;;;;7.67;58.18;98861.84;4972091;28;6823;-75
2021/12/05 03:14:02;;;;;;;;;;;;;;;7.66;58.93;98865.22;4973662;28;6990;-75
2021/12/05 03:16:31;;;;;;;;;;;;;;;7.66;57.97;98862.66;4973580;28;6815;-75
2021/12/05 03:18:58;;;;;;;;;;;;;;;7.65;58.05;98863.50;4973851;28;8344;-75
2021/12/05 03:21:24;;;;;;;;;;;;;;;7.63;58.42;98862.56;4976127;28;7202;-75
2021/12/05 03:23:52;;;;;;;;;;;;;;;7.61;58.08;98854.00;4973249;28;7295;-75
2021/12/05 03:26:32;;;;;;;;;;;;;;;7.57;57.92;98858.13;4971957;28;6892;-75
2021/12/05 03:28:59;;;;;;;;;;;;;;;7.53;58.46;98861.38;4970057;28;6819;-75
2021/12/05 03:31:30;;;;;;;;;;;;;;;7.51;58.34;98847.69;4969153;28;7888;-75
2021/12/05 03:33:57;;;;;;;;;;;;;;;7.48;58.51;98852.69;4956742;28;7225;-74
2021/12/05 03:36:24;;;;;;;;;;;;;;;7.49;58.30;98851.88;4970919;28;7380;-74
2021/12/05 03:38:50;;;;;;;;;;;;;;;7.47;58.64;98848.41;4971446;28;6967;-74
2021/12/05 03:41:18;;;;;;;;;;;;;;;7.47;58.98;98843.31;4972735;28;7190;-74
2021/12/05 03:43:50;;;;;;;;;;;;;;;7.47;58.45;98843.31;4970790;28;6815;-74
2021/12/05 03:46:17;;;;;;;;;;;;;;;7.46;58.23;98845.00;4967028;28;7252;-73
2021/12/05 03:48:50;;;;;;;;;;;;;;;7.45;59.01;98848.34;4968603;28;6812;-74
2021/12/05 03:51:19;;;;;;;;;;;;;;;7.46;58.46;98844.13;4957495;28;6804;-74
2021/12/05 03:53:46;;;;;;;;;;;;;;;7.45;58.83;98838.16;4967245;28;6792;-74
2021/12/05 03:56:12;;;;;;;;;;;;;;;7.44;59.02;98835.56;4970094;28;7288;-74
2021/12/05 03:58:39;;;;;;;;;;;;;;;7.43;58.28;98831.25;4973644;28;6792;-74
2021/12/05 04:01:09;;;;;;;;;;;;;;;7.40;58.61;98839.69;4971578;28;7212;-74
2021/12/05 04:03:37;;;;;;;;;;;;;;;7.41;58.49;98838.88;4975663;28;6812;-74
2021/12/05 04:06:06;;;;;;;;;;;;;;;7.37;58.66;98829.38;4968574;28;6784;-74
2021/12/05 04:08:32;;;;;;;;;;;;;;;7.36;58.58;98835.28;4975852;28;6823;-74
2021/12/05 04:11:05;;;;;;;;;;;;;;;7.34;58.16;98840.34;4975490;28;6995;-74
2021/12/05 04:13:32;;;;;;;;;;;;;;;7.34;58.46;98834.38;4974681;28;6815;-74
2021/12/05 04:16:00;;;;;;;;;;;;;;;7.34;58.24;98836.91;4957712;28;7051;-74
2021/12/05 04:18:27;;;;;;;;;;;;;;;7.34;58.66;98840.34;4972231;28;6998;-74
2021/12/05 04:20:54;;;;;;;;;;;;;;;7.34;58.75;98842.91;4972796;28;6812;-74
2021/12/05 04:23:20;;;;;;;;;;;;;;;7.35;58.55;98841.19;4973651;28;7098;-74
2021/12/05 04:25:50;;;;;;;;;;;;;;;7.34;58.67;98850.53;4975781;28;7246;-74
2021/12/05 04:28:18;;;;;;;;;;;;;;;7.33;58.82;98838.59;4973261;28;6828;-74
2021/12/05 04:30:44;;;;;;;;;;;;;;;7.33;58.39;98841.13;4974147;28;6816;-74
2021/12/05 04:33:10;;;;;;;;;;;;;;;7.32;58.62;98841.09;4979277;28;7940;-74
2021/12/05 04:35:36;;;;;;;;;;;;;;;7.33;58.42;98841.13;4973577;28;7024;-74
2021/12/05 04:38:03;;;;;;;;;;;;;;;7.35;58.67;98828.44;4959277;28;7073;-74
2021/12/05 04:40:29;;;;;;;;;;;;;;;7.36;58.82;98831.06;4975338;28;6804;-74
2021/12/05 04:42:55;;;;;;;;;;;;;;;7.39;58.82;98831.97;4975028;28;6787;-74
2021/12/05 04:45:27;;;;;;;;;;;;;;;7.40;58.07;98838.81;4944662;28;6947;-74
2021/12/05 04:47:54;;;;;;;;;;;;;;;7.41;58.13;98840.53;4974370;28;6899;-74
2021/12/05 04:50:21;;;;;;;;;;;;;;;7.42;58.56;98845.72;4956411;28;6804;-74
2021/12/05 04:52:49;;;;;;;;;;;;;;;7.40;58.27;98844.78;4973234;28;7280;-73
2021/12/05 04:55:17;;;;;;;;;;;;;;;7.41;58.55;98838.00;4971604;28;6804;-74
2021/12/05 04:57:44;;;;;;;;;;;;;;;7.41;57.91;98846.53;4976114;28;6972;-73
2021/12/05 05:00:21;;;;;;;;;;;;;;;7.43;58.37;98833.81;4974121;28;7031;-73
2021/12/05 05:02:47;;;;;;;;;;;;;;;7.46;58.60;98839.03;4943547;28;7348;-73
2021/12/05 05:05:13;;;;;;;;;;;;;;;7.49;58.67;98823.84;4958505;28;6783;-73
2021/12/05 05:07:41;;;;;;;;;;;;;;;7.52;58.37;98834.13;4991671;28;7042;-74
2021/12/05 05:10:12;;;;;;;;;;;;;;;7.57;58.29;98830.09;4976809;28;7527;-74
2021/12/05 05:12:38;;;;;;;;;;;;;;;7.59;57.37;98831.00;4978734;28;6815;-74
2021/12/05 05:15:06;;;;;;;;;;;;;;;7.59;58.08;98838.66;4959669;28;7888;-74
2021/12/05 05:17:33;;;;;;;;;;;;;;;7.60;57.58;98839.53;4961232;28;6808;-74
2021/12/05 05:20:04;;;;;;;;;;;;;;;7.58;58.01;98831.81;4976441;28;6828;-74
2021/12/05 05:22:45;;;;;;;;;;;;;;;7.57;57.74;98834.28;4977828;28;6807;-74
2021/12/05 05:30:55;;;;;;;;;;;;;;;7.51;58.17;98840.06;4974670;28;6899;-74
2021/12/05 05:42:12;;;;;;;;;;;;;;;7.72;57.24;98849.25;4979706;28;7156;-73
2021/12/05 05:47:10;;;;;;;;;;;;;;;7.85;56.87;98848.00;4976537;28;7876;-74
2021/12/05 05:52:16;;;;;;;;;;;;;;;7.87;56.99;98856.56;4975892;28;6811;-74
2021/12/05 05:54:46;;;;;;;;;;;;;;;7.87;56.89;98859.13;4978286;28;6799;-74
2021/12/05 05:57:21;;;;;;;;;;;;;;;7.87;56.93;98861.66;4962243;28;6839;-74
2021/12/05 06:00:00;;;;;;;;;;;;;;;7.92;57.56;98850.84;4977822;28;6825;-74
2021/12/05 06:05:12;;;;;;;;;;;;;;;8.02;56.51;98859.66;4977602;28;6891;-74
2021/12/05 06:07:45;;;;;;;;;;;;;;;8.05;57.11;98846.97;4976945;28;7153;-74
2021/12/05 06:10:20;;;;;;;;;;;;;;;8.08;56.64;98853.88;4960237;28;7657;-74
2021/12/05 06:12:46;;;;;;;;;;;;;;;8.08;56.70;98853.03;4975603;28;7216;-74
2021/12/05 06:15:16;;;;;;;;;;;;;;;8.09;56.28;98855.59;4976872;28;6892;-74
2021/12/05 06:17:43;;;;;;;;;;;;;;;8.10;55.85;98857.34;4961308;28;6997;-74
2021/12/05 06:20:16;;;;;;;;;;;;;;;8.13;56.54;98846.38;4976166;28;6812;-74
2021/12/05 06:22:43;;;;;;;;;;;;;;;8.16;55.95;98844.78;4974098;28;6816;-74
2021/12/05 06:25:12;;;;;;;;;;;;;;;8.18;56.08;98858.47;4977041;28;7056;-74
2021/12/05 06:27:39;;;;;;;;;;;;;;;8.20;56.50;98849.16;4975319;28;7884;-74
2021/12/05 06:30:16;;;;;;;;;;;;;;;8.21;56.29;98847.50;4972271;28;6812;-74
2021/12/05 06:38:40;;;;;;;;;;;;;;;8.22;55.84;98851.78;4973211;28;6904;-73
2021/12/05 06:48:53;;;;;;;;;;;;;;;8.19;56.28;98855.09;4980565;28;6831;-74
2021/12/05 06:51:28;;;;;;;;;;;;;;;8.20;55.79;98861.94;4956818;28;6804;-74
2021/12/05 06:53:55;;;;;;;;;;;;;;;8.21;56.09;98862.81;4970892;28;6859;-74
2021/12/05 06:56:21;;;;;;;;;;;;;;;8.22;55.10;98868.78;4980784;28;6946;-73
2021/12/05 06:58:48;;;;;;;;;;;;;;;8.24;56.06;98872.25;4970718;28;6883;-74
2021/12/05 07:01:15;;;;;;;;;;;;;;;8.23;55.94;98876.47;4967886;28;6800;-74
2021/12/05 07:03:46;;;;;;;;;;;;;;;8.26;55.55;98878.28;4970711;28;6808;-74
2021/12/05 07:09:10;;;;;;;;;;;;;;;8.27;56.41;98886.00;4972704;28;7076;-74
2021/12/05 07:14:32;;;;;;;;;;;;;;;8.25;55.62;98894.41;4972150;28;7299;-74
2021/12/05 07:17:03;;;;;;;;;;;;;;;8.19;55.52;98888.28;4970880;28;6824;-74
2021/12/05 07:22:27;;;;;;;;;;;;;;;8.11;56.91;98892.28;4950171;28;7282;-74
2021/12/05 07:25:05;;;;;;;;;;;;;;;8.08;56.49;98897.25;4985015;28;7026;-74
2021/12/05 07:43:43;;;;;;;;;;;;;;;8.28;57.32;98927.69;4970902;28;6791;-74
2021/12/05 07:46:08;;;;;;;;;;;;;;;8.32;57.03;98937.19;4953782;28;6784;-74
2021/12/05 07:48:39;;;;;;;;;;;;;;;8.40;56.85;98940.00;4967832;28;7305;-74
2021/12/05 07:51:15;;;;;;;;;;;;;;;8.44;57.39;98940.16;4973863;28;6831;-74
2021/12/05 07:53:54;;;;;;;;;;;;;;;8.48;56.48;98939.44;4971357;28;7150;-74
2021/12/05 08:15:30;;;;;;;;;;;;;;;8.77;56.80;98960.78;4968867;28;7012;-74
2021/12/05 08:17:58;;;;;;;;;;;;;;;8.79;55.43;98960.03;4969424;28;6815;-74
2021/12/05 08:20:34;;;;;;;;;;;;;;;8.83;55.99;98966.09;4973786;28;7138;-74
2021/12/05 08:23:02;;;;;;;;;;;;;;;8.84;56.73;98966.16;4972396;28;6812;-74
2021/12/05 08:25:32;;;;;;;;;;;;;;;8.87;55.95;98970.47;4972966;28;7197;-74
2021/12/05 08:30:39;;;;;;;;;;;;;;;8.89;56.16;98976.53;4956311;28;8844;-74
2021/12/05 08:33:19;;;;;;;;;;;;;;;8.90;55.69;98973.16;4957010;28;7015;-74
2021/12/05 08:36:16;;;;;;;;;;;;;;;8.88;55.93;98965.44;4972074;28;6828;-74
2021/12/05 08:39:27;;;;;;;;;;;;;;;8.89;56.47;98966.31;4971169;28;6904;-74
2021/12/05 08:44:32;;;;;;;;;;;;;;;8.86;55.83;98966.19;4978074;28;6819;-74
2021/12/05 09:25:25;;;;;;;;;;;;;;;8.88;56.02;99005.44;4978904;28;6896;-74
2021/12/05 10:03:01;;;;;;;;;;;;;;;9.99;54.72;99040.31;4973045;28;6907;-74
2021/12/05 10:13:37;;;;;;;;;;;;;;;10.27;55.06;99059.00;4972404;28;6804;-74
2021/12/05 10:36:01;;;;;;;;;;;;;;;10.51;53.07;99078.47;4971110;28;6892;-74
2021/12/05 10:38:40;;;;;;;;;;;;;;;10.54;53.00;99073.44;4969958;28;7099;-74
2021/12/05 10:43:44;;;;;;;;;;;;;;;10.60;53.86;99078.72;4968837;28;6823;-74
2021/12/05 10:46:18;;;;;;;;;;;;;;;10.60;53.01;99088.09;4972860;28;7268;-74
2021/12/05 10:49:21;;;;;;;;;;;;;;;10.59;52.90;99091.50;4937876;28;8534;-74
2021/12/05 10:51:57;;;;;;;;;;;;;;;10.59;53.79;99094.06;4955819;28;6820;-74
2021/12/05 10:54:28;;;;;;;;;;;;;;;10.61;53.19;99090.69;4972872;28;6882;-74
2021/12/05 10:57:01;;;;;;;;;;;;;;;10.63;53.40;99093.31;4968333;28;6800;-74
2021/12/05 10:59:39;;;;;;;;;;;;;;;10.60;52.99;99088.09;4969843;28;6824;-74
2021/12/05 11:02:30;;;;;;;;;;;;;;;10.52;53.56;99086.19;4944738;28;7387;-74
2021/12/05 11:04:56;;;;;;;;;;;;;;;10.48;53.89;99091.19;4955938;28;7227;-74
2021/12/05 11:07:23;;;;;;;;;;;;;;;10.44;54.25;99092.81;4972318;28;6910;-74
2021/12/05 11:09:57;;;;;;;;;;;;;;;10.38;53.86;99085.78;4958754;28;6812;-74
2021/12/05 11:12:34;;;;;;;;;;;;;;;10.34;54.22;99089.09;4981508;28;7374;-74
2021/12/05 11:15:04;;;;;;;;;;;;;;;10.29;53.63;99088.09;4968841;28;6812;-74
2021/12/05 11:17:38;;;;;;;;;;;;;;;10.26;54.34;99088.88;4969087;28;8127;-74
2021/12/05 11:20:11;;;;;;;;;;;;;;;10.23;53.95;99093.91;4956863;28;6982;-74
2021/12/05 11:22:48;;;;;;;;;;;;;;;10.21;54.07;99084.44;4951208;28;6890;-74
2021/12/05 11:25:27;;;;;;;;;;;;;;;10.21;54.71;99092.13;4969708;28;7226;-74
2021/12/05 11:28:04;;;;;;;;;;;;;;;10.20;54.28;99086.16;4972684;28;6958;-74
2021/12/05 11:30:36;;;;;;;;;;;;;;;10.19;54.75;99086.97;4972131;28;7046;-74
2021/12/05 11:33:19;;;;;;;;;;;;;;;10.20;54.03;99083.59;4973473;28;6816;-74
2021/12/05 11:35:59;;;;;;;;;;;;;;;10.25;54.46;99091.41;4941767;28;6865;-74
2021/12/05 11:38:34;;;;;;;;;;;;;;;10.28;54.49;99086.34;4974392;28;6823;-74
2021/12/05 11:41:06;;;;;;;;;;;;;;;10.38;54.88;99093.47;4973417;28;6968;-74
2021/12/05 11:43:40;;;;;;;;;;;;;;;10.46;54.78;99091.16;4974129;28;6800;-74
2021/12/05 11:46:12;;;;;;;;;;;;;;;10.55;54.58;99095.66;4973332;28;7172;-74
2021/12/05 11:48:57;;;;;;;;;;;;;;;10.60;54.36;99095.78;4975485;28;6823;-74
2021/12/05 11:51:38;;;;;;;;;;;;;;;10.64;54.36;99100.16;4973863;28;6811;-74
2021/12/05 11:54:12;;;;;;;;;;;;;;;10.65;53.80;99097.66;4975367;28;7649;-74
2021/12/05 11:57:07;;;;;;;;;;;;;;;10.64;54.41;99101.03;4975696;28;6888;-74
2021/12/05 11:59:49;;;;;;;;;;;;;;;10.63;54.47;99101.88;4974696;28;6820;-74
2021/12/05 12:02:26;;;;;;;;;;;;;;;10.60;54.53;99104.31;4976022;28;6835;-74
2021/12/05 12:05:19;;;;;;;;;;;;;;;10.58;54.57;99111.13;4991031;28;6978;-74
2021/12/05 12:08:00;;;;;;;;;;;;;;;10.54;53.92;99119.56;4975484;28;6889;-74
2021/12/05 12:10:39;;;;;;;;;;;;;;;10.47;54.79;99112.53;4978212;28;6827;-74
2021/12/05 12:13:14;;;;;;;;;;;;;;;10.43;54.49;99116.69;4970125;28;6892;-74
2021/12/05 12:15:44;;;;;;;;;;;;;;;10.40;54.75;99119.13;4958974;28;7015;-74
2021/12/05 12:18:24;;;;;;;;;;;;;;;10.40;55.10;99125.09;4980955;28;6812;-74
2021/12/05 12:20:51;;;;;;;;;;;;;;;10.42;54.64;99120.94;4980168;28;6812;-74
2021/12/05 12:23:20;;;;;;;;;;;;;;;10.47;54.34;99117.63;4976713;28;7153;-74
2021/12/05 12:25:54;;;;;;;;;;;;;;;10.51;54.55;99125.47;4952836;28;7010;-74
2021/12/05 12:28:21;;;;;;;;;;;;;;;10.59;54.77;99129.94;4962762;28;7138;-74
2021/12/05 12:31:04;;;;;;;;;;;;;;;10.62;54.98;99128.31;4979435;28;6808;-74
2021/12/05 12:33:53;;;;;;;;;;;;;;;10.63;55.06;99124.06;4947493;28;7023;-74
2021/12/05 12:36:45;;;;;;;;;;;;;;;10.63;54.79;99130.06;4967674;28;7905;-74
2021/12/05 12:39:16;;;;;;;;;;;;;;;10.62;54.72;99124.88;4980645;28;7211;-74
2021/12/05 12:42:16;;;;;;;;;;;;;;;10.64;54.29;99131.78;4975827;28;6973;-74
2021/12/05 12:45:00;;;;;;;;;;;;;;;10.64;54.31;99134.34;4979532;28;7316;-74
2021/12/05 12:47:43;;;;;;;;;;;;;;;10.67;54.55;99129.31;4979589;28;7142;-74
2021/12/05 12:50:59;;;;;;;;;;;;;;;10.72;54.26;99131.09;4973842;28;7304;-74
2021/12/05 12:53:37;;;;;;;;;;;;;;;10.71;53.95;99132.81;4971200;28;6837;-74
2021/12/05 12:56:06;;;;;;;;;;;;;;;10.68;54.34;99141.28;4961930;28;6812;-74
2021/12/05 12:58:58;;;;;;;;;;;;;;;10.67;54.16;99141.22;4974553;28;6816;-74
2021/12/05 13:10:11;;;;;;;;;;;;;;;10.42;53.76;99161.91;4991261;28;6907;-74
2021/12/05 13:12:39;;;;;;;;;;;;;;;10.34;54.00;99155.69;4977574;28;6820;-74
2021/12/05 13:15:36;;;;;;;;;;;;;;;10.28;54.07;99163.19;4974295;28;7190;-74
2021/12/05 13:18:23;;;;;;;;;;;;;;;10.23;54.24;99169.84;4978289;28;6824;-74
2021/12/05 13:21:01;;;;;;;;;;;;;;;10.16;53.75;99166.25;4963226;28;6808;-74
2021/12/05 13:23:31;;;;;;;;;;;;;;;10.09;53.84;99166.88;4973936;28;6820;-73
2021/12/05 13:26:15;;;;;;;;;;;;;;;10.02;53.89;99181.19;4975137;28;6812;-73
2021/12/05 13:28:48;;;;;;;;;;;;;;;9.97;55.25;99182.75;4975087;28;6987;-73
2021/12/05 13:31:28;;;;;;;;;;;;;;;9.96;55.05;99189.53;4973392;28;6820;-73
2021/12/05 13:34:22;;;;;;;;;;;;;;;9.97;54.98;99190.44;4974866;28;7066;-74
2021/12/05 13:37:05;;;;;;;;;;;;;;;9.98;55.63;99189.59;4991746;28;7210;-74
2021/12/05 13:40:12;;;;;;;;;;;;;;;10.00;54.56;99199.09;4976365;28;6796;-74
2021/12/05 13:42:47;;;;;;;;;;;;;;;9.99;54.98;99204.13;4977081;28;7190;-74
2021/12/05 13:45:25;;;;;;;;;;;;;;;10.00;54.77;99204.19;4957664;28;7214;-74
2021/12/05 13:47:51;;;;;;;;;;;;;;;10.02;55.23;99211.91;4974192;28;6878;-74
2021/12/05 13:50:16;;;;;;;;;;;;;;;10.07;54.41;99214.59;4956812;28;6915;-74
2021/12/05 13:52:52;;;;;;;;;;;;;;;10.11;54.70;99217.31;4973463;28;6856;-74
2021/12/05 13:55:59;;;;;;;;;;;;;;;10.17;55.11;99220.91;4969724;28;7250;-74
2021/12/05 13:58:47;;;;;;;;;;;;;;;10.22;55.06;99227.00;4973011;28;8053;-74
2021/12/05 14:01:30;;;;;;;;;;;;;;;10.23;54.74;99226.19;4974125;28;6816;-74
2021/12/05 14:04:19;;;;;;;;;;;;;;;10.25;53.69;99234.81;4971879;28;7482;-74
2021/12/05 14:07:07;;;;;;;;;;;;;;;10.29;54.36;99236.63;4973567;28;6792;-74
2021/12/05 14:09:47;;;;;;;;;;;;;;;10.34;54.12;99227.41;4972882;28;7065;-74
2021/12/05 14:12:17;;;;;;;;;;;;;;;10.41;54.71;99236.13;4971162;28;6808;-74
2021/12/05 14:14:53;;;;;;;;;;;;;;;10.48;54.03;99232.97;4985553;28;6974;-74
2021/12/05 14:17:21;;;;;;;;;;;;;;;10.53;53.90;99238.22;4940079;28;6848;-74
2021/12/05 14:19:54;;;;;;;;;;;;;;;10.58;53.76;99246.06;4986840;28;7246;-75
2021/12/05 14:22:24;;;;;;;;;;;;;;;10.59;54.06;99258.03;4972574;28;7137;-75
2021/12/05 14:24:55;;;;;;;;;;;;;;;10.59;54.11;99260.59;4971118;28;7330;-74
2021/12/05 14:27:31;;;;;;;;;;;;;;;10.59;53.49;99275.97;4972638;28;6899;-74
2021/12/05 14:29:59;;;;;;;;;;;;;;;10.59;53.50;99270.84;4968850;28;6956;-74
2021/12/05 14:32:30;;;;;;;;;;;;;;;10.55;53.69;99280.97;4970635;28;8260;-74
2021/12/05 14:35:36;;;;;;;;;;;;;;;10.50;53.83;99281.66;4974329;28;7865;-74
2021/12/05 14:38:03;;;;;;;;;;;;;;;10.41;53.84;99284.81;4969216;28;6828;-74
2021/12/05 14:40:32;;;;;;;;;;;;;;;10.35;53.63;99280.38;4970660;28;6834;-74
2021/12/05 14:43:04;;;;;;;;;;;;;;;10.30;54.22;99283.59;4972483;28;6808;-74
2021/12/05 14:45:36;;;;;;;;;;;;;;;10.25;54.22;99289.44;4955898;28;6815;-74
2021/12/05 14:48:05;;;;;;;;;;;;;;;10.24;53.86;99286.84;4971221;28;7205;-74
2021/12/05 14:50:35;;;;;;;;;;;;;;;10.21;54.21;99300.41;4956115;28;6992;-74
2021/12/05 14:53:06;;;;;;;;;;;;;;;10.21;53.95;99300.41;4969776;28;7291;-74
2021/12/05 14:55:35;;;;;;;;;;;;;;;10.22;54.66;99303.84;4947738;28;7052;-74
2021/12/05 14:58:09;;;;;;;;;;;;;;;10.21;53.81;99304.66;4969649;28;6804;-74
2021/12/05 15:00:51;;;;;;;;;;;;;;;10.17;53.58;99302.84;4956773;28;6804;-74
2021/12/05 15:03:26;;;;;;;;;;;;;;;10.11;54.23;99309.47;4979400;28;6819;-74
2021/12/05 15:05:59;;;;;;;;;;;;;;;10.07;54.16;99310.22;4975044;28;7217;-74
2021/12/05 15:08:29;;;;;;;;;;;;;;;10.02;54.40;99310.88;4971613;28;6839;-74
2021/12/05 15:11:00;;;;;;;;;;;;;;;10.00;54.11;99323.63;4953911;28;6812;-74
2021/12/05 15:13:26;;;;;;;;;;;;;;;9.99;54.57;99321.88;4970130;28;7153;-74
2021/12/05 15:15:52;;;;;;;;;;;;;;;9.98;54.97;99317.59;4972630;28;6942;-74
2021/12/05 15:18:24;;;;;;;;;;;;;;;9.96;53.95;99320.09;4973909;28;7037;-74
2021/12/05 15:20:50;;;;;;;;;;;;;;;9.95;54.37;99331.16;4972689;28;6899;-74
2021/12/05 15:23:16;;;;;;;;;;;;;;;9.95;54.38;99335.41;4974450;28;6864;-74
2021/12/05 15:25:44;;;;;;;;;;;;;;;9.93;54.22;99340.47;4956138;28;6966;-74
2021/12/05 15:28:14;;;;;;;;;;;;;;;9.91;55.27;99347.25;4974060;28;7240;-74
2021/12/05 15:30:47;;;;;;;;;;;;;;;9.88;54.68;99351.38;4974335;28;7028;-74
2021/12/05 15:33:20;;;;;;;;;;;;;;;9.84;55.34;99351.25;4973384;28;6839;-74
2021/12/05 15:35:49;;;;;;;;;;;;;;;9.80;54.54;99349.44;4975869;28;7410;-74
2021/12/05 15:38:24;;;;;;;;;;;;;;;9.76;55.41;99360.38;4975834;28;7004;-74
2021/12/05 15:40:55;;;;;;;;;;;;;;;9.73;55.18;99365.38;4975008;28;8867;-74
2021/12/05 15:43:25;;;;;;;;;;;;;;;9.72;55.74;99373.88;4974253;28;6808;-73
2021/12/05 15:45:55;;;;;;;;;;;;;;;9.70;55.02;99372.97;4974858;28;7066;-73
2021/12/05 15:48:26;;;;;;;;;;;;;;;9.70;55.77;99378.06;4957933;28;7089;-73
2021/12/05 15:50:52;;;;;;;;;;;;;;;9.69;54.95;99387.41;4981503;28;7281;-73
2021/12/05 15:53:20;;;;;;;;;;;;;;;9.69;55.18;99384.00;4975694;28;7338;-73
2021/12/05 15:55:52;;;;;;;;;;;;;;;9.69;55.56;99389.97;4976995;28;6800;-73
2021/12/05 15:58:38;;;;;;;;;;;;;;;9.68;54.91;99395.06;4979600;28;7179;-73
2021/12/05 16:01:15;;;;;;;;;;;;;;;9.66;55.42;99391.59;4981532;28;6807;-73
2021/12/05 16:03:47;;;;;;;;;;;;;;;9.66;55.48;99404.38;4963134;28;7025;-73
2021/12/05 16:06:16;;;;;;;;;;;;;;;9.65;55.36;99410.28;4980588;28;6820;-73
2021/12/05 16:08:46;;;;;;;;;;;;;;;9.66;55.38;99410.34;4979340;28;7867;-73
2021/12/05 16:11:19;;;;;;;;;;;;;;;9.66;55.72;99409.50;4979818;28;7141;-73
2021/12/05 16:13:49;;;;;;;;;;;;;;;9.66;54.87;99418.03;4961977;28;6816;-73
2021/12/05 16:16:23;;;;;;;;;;;;;;;9.66;55.36;99422.28;4978664;28;6908;-73
2021/12/05 16:18:54;;;;;;;;;;;;;;;9.66;55.94;99429.97;4979876;28;6845;-73
2021/12/05 16:21:34;;;;;;;;;;;;;;;9.67;55.03;99439.38;4977638;28;8737;-73
2021/12/05 16:24:14;;;;;;;;;;;;;;;9.67;55.78;99441.94;4979035;28;6816;-73
2021/12/05 16:26:43;;;;;;;;;;;;;;;9.68;56.39;99446.25;4961818;28;7210;-73
2021/12/05 16:29:13;;;;;;;;;;;;;;;9.68;56.23;99451.34;4960874;28;7294;-73
2021/12/05 16:31:44;;;;;;;;;;;;;;;9.69;55.99;99461.63;4978939;28;7920;-73
2021/12/05 16:34:18;;;;;;;;;;;;;;;9.69;56.20;99463.34;4980334;28;6812;-74
2021/12/05 16:36:53;;;;;;;;;;;;;;;9.69;56.12;99464.19;4978409;28;6824;-74
2021/12/05 16:39:42;;;;;;;;;;;;;;;9.70;55.62;99460.81;4962054;28;7217;-74
2021/12/05 16:42:14;;;;;;;;;;;;;;;9.70;55.81;99460.81;4960305;28;7015;-73
2021/12/05 16:44:41;;;;;;;;;;;;;;;9.70;55.35;99465.94;4979040;28;6823;-73
2021/12/05 16:47:11;;;;;;;;;;;;;;;9.70;56.45;99477.88;4980366;28;7169;-73
2021/12/05 16:49:41;;;;;;;;;;;;;;;9.66;55.42;99479.44;4975796;28;6803;-73
2021/12/05 16:52:23;;;;;;;;;;;;;;;9.62;55.76;99489.50;4963445;28;6990;-73
2021/12/05 16:54:54;;;;;;;;;;;;;;;9.58;56.08;99491.94;4959725;28;6812;-73
2021/12/05 16:57:31;;;;;;;;;;;;;;;9.58;55.86;99485.94;4990433;28;6895;-73
2021/12/05 17:00:09;;;;;;;;;;;;;;;9.58;56.19;99491.94;4974934;28;8436;-73
2021/12/05 17:02:44;;;;;;;;;;;;;;;9.59;55.75;99491.13;4974732;28;8036;-73
2021/12/05 17:05:34;;;;;;;;;;;;;;;9.62;56.33;99502.28;4957921;28;7186;-73
2021/12/05 17:08:22;;;;;;;;;;;;;;;9.59;55.29;99500.47;4976638;28;6854;-73
2021/12/05 17:11:22;;;;;;;;;;;;;;;9.56;56.30;99508.94;4978576;28;6978;-73
2021/12/05 17:13:55;;;;;;;;;;;;;;;9.54;56.12;99517.34;4950043;28;6812;-73
2021/12/05 17:16:28;;;;;;;;;;;;;;;9.52;56.42;99516.44;4958206;28;7941;-73
2021/12/05 17:19:01;;;;;;;;;;;;;;;9.50;55.77;99523.16;4972124;28;7309;-73
2021/12/05 17:21:40;;;;;;;;;;;;;;;9.49;55.97;99527.41;4973126;28;6978;-74
2021/12/05 17:24:10;;;;;;;;;;;;;;;9.49;55.38;99529.09;4973622;28;6808;-74
2021/12/05 17:26:54;;;;;;;;;;;;;;;9.50;56.40;99534.28;4971342;28;7046;-74
2021/12/05 17:29:27;;;;;;;;;;;;;;;9.53;56.52;99534.38;4974029;28;6827;-74
2021/12/05 17:32:04;;;;;;;;;;;;;;;9.54;56.97;99536.13;4971654;28;7201;-74
2021/12/05 17:34:35;;;;;;;;;;;;;;;9.55;55.69;99548.09;4957165;28;6812;-73
2021/12/05 17:37:18;;;;;;;;;;;;;;;9.56;55.64;99549.88;4970345;28;6819;-74
2021/12/05 17:39:48;;;;;;;;;;;;;;;9.58;56.39;99555.91;4970818;28;7469;-74
2021/12/05 17:42:25;;;;;;;;;;;;;;;9.55;55.53;99563.44;4978480;28;7249;-74
2021/12/05 17:44:56;;;;;;;;;;;;;;;9.51;56.41;99564.16;4967138;28;6835;-74
2021/12/05 17:47:24;;;;;;;;;;;;;;;9.48;56.29;99566.59;4972785;28;7149;-74
2021/12/05 17:49:57;;;;;;;;;;;;;;;9.45;56.70;99571.56;4971179;28;6804;-73
2021/12/05 17:52:26;;;;;;;;;;;;;;;9.42;55.87;99569.81;4969573;28;8036;-73
2021/12/05 17:55:06;;;;;;;;;;;;;;;9.40;56.58;99568.84;4970479;28;7269;-73
2021/12/05 17:57:40;;;;;;;;;;;;;;;9.41;57.21;99574.84;4969047;28;6852;-73
2021/12/05 18:00:34;;;;;;;;;;;;;;;9.42;56.64;99580.03;4979974;28;6807;-73
2021/12/05 18:03:09;;;;;;;;;;;;;;;9.45;56.39;99581.81;4978813;28;7130;-73
2021/12/05 18:05:43;;;;;;;;;;;;;;;9.47;57.12;99587.88;4950824;28;7001;-73
2021/12/05 18:08:14;;;;;;;;;;;;;;;9.48;57.09;99594.75;4963223;28;7260;-73
2021/12/05 18:10:48;;;;;;;;;;;;;;;9.48;56.20;99594.75;4971779;28;6987;-73
2021/12/05 18:13:16;;;;;;;;;;;;;;;9.49;56.50;99600.72;4973995;28;7446;-74
2021/12/05 18:15:48;;;;;;;;;;;;;;;9.49;57.12;99606.72;4969373;28;7016;-73
2021/12/05 18:18:16;;;;;;;;;;;;;;;9.48;56.35;99606.66;4973862;28;6815;-73
2021/12/05 18:20:43;;;;;;;;;;;;;;;9.45;56.00;99607.38;4974698;28;6820;-73
2021/12/05 18:23:10;;;;;;;;;;;;;;;9.44;55.90;99613.31;4975216;28;6823;-73
2021/12/05 18:25:37;;;;;;;;;;;;;;;9.42;56.95;99612.41;4973690;28;6880;-73
2021/12/05 18:28:05;;;;;;;;;;;;;;;9.40;56.61;99616.59;4975705;28;6808;-73
2021/12/05 18:30:32;;;;;;;;;;;;;;;9.39;56.12;99625.06;4974429;28;7130;-73
2021/12/05 18:33:02;;;;;;;;;;;;;;;9.38;56.48;99625.88;4970306;28;7145;-73
2021/12/05 18:35:32;;;;;;;;;;;;;;;9.36;56.65;99630.03;4969406;28;7031;-73
2021/12/05 18:38:01;;;;;;;;;;;;;;;9.33;56.91;99630.81;4972871;28;6891;-73
2021/12/05 18:40:28;;;;;;;;;;;;;;;9.30;56.22;99636.66;4974662;28;6963;-73
2021/12/05 18:42:53;;;;;;;;;;;;;;;9.27;57.07;99640.78;4973031;28;6803;-73
2021/12/05 18:45:22;;;;;;;;;;;;;;;9.24;56.94;99644.06;4976231;28;6815;-73
2021/12/05 18:47:48;;;;;;;;;;;;;;;9.21;56.82;99645.63;4975172;28;6803;-73
2021/12/05 18:50:14;;;;;;;;;;;;;;;9.16;57.49;99648.00;4972522;28;6812;-73
2021/12/05 18:52:42;;;;;;;;;;;;;;;9.13;56.58;99646.22;4975557;28;6964;-73
2021/12/05 18:55:15;;;;;;;;;;;;;;;9.10;56.76;99656.28;4959197;28;7065;-73